sensor_id;sensor_type;location;lat;lon;timestamp;P1;durP1;ratioP1;P2;durP2;ratioP2
58310;SDS011;45001;52.218;5.154;2022-07-30T00:01:28;3.85;;;1.63;;
58310;SDS011;45001;52.218;5.154;2022-07-30T00:03:53;4.10;;;1.30;;
58310;SDS011;45001;52.218;5.154;2022-07-30T00:06:18;4.17;;;1.60;;
58310;SDS011;45001;52.218;5.154;2022-07-30T00:08:43;3.70;;;1.60;;
58310;SDS011;45001;52.218;5.154;2022-07-30T00:11:09;2.70;;;1.48;;
58310;SDS011;45001;52.218;5.154;2022-07-30T00:13:35;3.35;;;1.55;;
58310;SDS011;45001;52.218;5.154;2022-07-30T00:16:01;3.97;;;1.42;;
58310;SDS011;45001;52.218;5.154;2022-07-30T00:18:26;2.80;;;1.50;;
58310;SDS011;45001;52.218;5.154;2022-07-30T00:20:51;2.08;;;1.20;;
58310;SDS011;45001;52.218;5.154;2022-07-30T00:23:17;3.75;;;1.58;;
58310;SDS011;45001;52.218;5.154;2022-07-30T00:25:42;4.10;;;1.65;;
58310;SDS011;45001;52.218;5.154;2022-07-30T00:28:08;2.78;;;1.45;;
58310;SDS011;45001;52.218;5.154;2022-07-30T00:30:33;3.10;;;1.50;;
58310;SDS011;45001;52.218;5.154;2022-07-30T00:32:59;2.28;;;1.30;;
58310;SDS011;45001;52.218;5.154;2022-07-30T00:35:24;3.30;;;1.50;;
58310;SDS011;45001;52.218;5.154;2022-07-30T00:37:49;3.03;;;1.50;;
58310;SDS011;45001;52.218;5.154;2022-07-30T00:40:15;3.35;;;1.42;;
58310;SDS011;45001;52.218;5.154;2022-07-30T00:42:41;3.25;;;1.58;;
58310;SDS011;45001;52.218;5.154;2022-07-30T00:45:09;2.97;;;1.30;;
58310;SDS011;45001;52.218;5.154;2022-07-30T00:47:36;2.50;;;1.50;;
58310;SDS011;45001;52.218;5.154;2022-07-30T00:50:03;3.60;;;1.60;;
58310;SDS011;45001;52.218;5.154;2022-07-30T00:52:30;2.75;;;1.30;;
58310;SDS011;45001;52.218;5.154;2022-07-30T00:54:56;4.35;;;1.92;;
58310;SDS011;45001;52.218;5.154;2022-07-30T00:57:23;3.38;;;1.42;;
58310;SDS011;45001;52.218;5.154;2022-07-30T00:59:49;3.28;;;1.58;;
58310;SDS011;45001;52.218;5.154;2022-07-30T01:02:14;2.35;;;1.50;;
58310;SDS011;45001;52.218;5.154;2022-07-30T01:04:40;3.17;;;1.83;;
58310;SDS011;45001;52.218;5.154;2022-07-30T01:07:05;3.50;;;1.77;;
58310;SDS011;45001;52.218;5.154;2022-07-30T01:09:30;3.50;;;1.40;;
58310;SDS011;45001;52.218;5.154;2022-07-30T01:11:56;3.33;;;1.70;;
58310;SDS011;45001;52.218;5.154;2022-07-30T01:14:22;2.42;;;1.35;;
58310;SDS011;45001;52.218;5.154;2022-07-30T01:16:47;3.67;;;1.75;;
58310;SDS011;45001;52.218;5.154;2022-07-30T01:19:14;2.80;;;1.33;;
58310;SDS011;45001;52.218;5.154;2022-07-30T01:28:08;2.47;;;1.33;;
58310;SDS011;45001;52.218;5.154;2022-07-30T01:30:40;3.05;;;1.45;;
58310;SDS011;45001;52.218;5.154;2022-07-30T01:33:07;3.55;;;1.50;;
58310;SDS011;45001;52.218;5.154;2022-07-30T01:35:35;2.45;;;1.58;;
58310;SDS011;45001;52.218;5.154;2022-07-30T01:38:03;2.92;;;1.40;;
58310;SDS011;45001;52.218;5.154;2022-07-30T01:40:30;3.50;;;1.70;;
58310;SDS011;45001;52.218;5.154;2022-07-30T01:42:58;3.58;;;1.40;;
58310;SDS011;45001;52.218;5.154;2022-07-30T01:45:27;2.95;;;1.80;;
58310;SDS011;45001;52.218;5.154;2022-07-30T01:47:58;3.47;;;1.55;;
58310;SDS011;45001;52.218;5.154;2022-07-30T01:50:25;3.50;;;1.50;;
58310;SDS011;45001;52.218;5.154;2022-07-30T01:52:53;2.83;;;1.58;;
58310;SDS011;45001;52.218;5.154;2022-07-30T01:55:22;3.35;;;1.70;;
58310;SDS011;45001;52.218;5.154;2022-07-30T01:57:51;4.28;;;1.67;;
58310;SDS011;45001;52.218;5.154;2022-07-30T02:00:19;3.40;;;1.40;;
58310;SDS011;45001;52.218;5.154;2022-07-30T02:02:46;3.67;;;1.65;;
58310;SDS011;45001;52.218;5.154;2022-07-30T02:05:12;4.25;;;1.75;;
58310;SDS011;45001;52.218;5.154;2022-07-30T02:07:39;5.15;;;1.90;;
58310;SDS011;45001;52.218;5.154;2022-07-30T02:10:12;4.70;;;1.80;;
58310;SDS011;45001;52.218;5.154;2022-07-30T02:12:45;3.55;;;1.60;;
58310;SDS011;45001;52.218;5.154;2022-07-30T02:17:50;3.38;;;1.90;;
58310;SDS011;45001;52.218;5.154;2022-07-30T02:20:27;4.88;;;1.83;;
58310;SDS011;45001;52.218;5.154;2022-07-30T02:22:56;3.22;;;1.60;;
58310;SDS011;45001;52.218;5.154;2022-07-30T02:25:24;4.28;;;1.60;;
58310;SDS011;45001;52.218;5.154;2022-07-30T02:27:52;3.65;;;1.77;;
58310;SDS011;45001;52.218;5.154;2022-07-30T02:30:22;3.75;;;1.67;;
58310;SDS011;45001;52.218;5.154;2022-07-30T02:32:53;4.43;;;2.03;;
58310;SDS011;45001;52.218;5.154;2022-07-30T02:35:23;2.75;;;1.70;;
58310;SDS011;45001;52.218;5.154;2022-07-30T02:37:51;2.60;;;1.92;;
58310;SDS011;45001;52.218;5.154;2022-07-30T02:40:19;3.60;;;1.83;;
58310;SDS011;45001;52.218;5.154;2022-07-30T02:42:47;2.53;;;1.70;;
58310;SDS011;45001;52.218;5.154;2022-07-30T02:45:16;2.53;;;1.63;;
58310;SDS011;45001;52.218;5.154;2022-07-30T02:47:43;2.60;;;1.80;;
58310;SDS011;45001;52.218;5.154;2022-07-30T02:50:10;2.78;;;1.70;;
58310;SDS011;45001;52.218;5.154;2022-07-30T02:52:37;2.78;;;1.65;;
58310;SDS011;45001;52.218;5.154;2022-07-30T02:55:04;3.58;;;1.70;;
58310;SDS011;45001;52.218;5.154;2022-07-30T02:57:32;3.10;;;1.80;;
58310;SDS011;45001;52.218;5.154;2022-07-30T02:59:58;4.00;;;1.73;;
58310;SDS011;45001;52.218;5.154;2022-07-30T03:02:25;3.53;;;1.70;;
58310;SDS011;45001;52.218;5.154;2022-07-30T03:04:51;3.53;;;2.00;;
58310;SDS011;45001;52.218;5.154;2022-07-30T03:07:18;3.30;;;2.00;;
58310;SDS011;45001;52.218;5.154;2022-07-30T03:09:44;3.53;;;1.98;;
58310;SDS011;45001;52.218;5.154;2022-07-30T03:12:11;3.88;;;1.80;;
58310;SDS011;45001;52.218;5.154;2022-07-30T03:14:38;2.75;;;1.83;;
58310;SDS011;45001;52.218;5.154;2022-07-30T03:17:03;4.30;;;2.13;;
58310;SDS011;45001;52.218;5.154;2022-07-30T03:19:31;3.95;;;2.13;;
58310;SDS011;45001;52.218;5.154;2022-07-30T03:24:27;4.55;;;1.90;;
58310;SDS011;45001;52.218;5.154;2022-07-30T03:26:53;3.60;;;1.92;;
58310;SDS011;45001;52.218;5.154;2022-07-30T03:29:21;4.43;;;2.42;;
58310;SDS011;45001;52.218;5.154;2022-07-30T03:31:49;3.10;;;1.90;;
58310;SDS011;45001;52.218;5.154;2022-07-30T03:34:14;3.60;;;1.80;;
58310;SDS011;45001;52.218;5.154;2022-07-30T03:36:41;3.00;;;1.83;;
58310;SDS011;45001;52.218;5.154;2022-07-30T03:39:07;4.18;;;2.28;;
58310;SDS011;45001;52.218;5.154;2022-07-30T03:41:34;2.20;;;1.58;;
58310;SDS011;45001;52.218;5.154;2022-07-30T03:44:00;3.63;;;1.98;;
58310;SDS011;45001;52.218;5.154;2022-07-30T03:46:26;2.53;;;1.80;;
58310;SDS011;45001;52.218;5.154;2022-07-30T03:48:52;2.75;;;2.05;;
58310;SDS011;45001;52.218;5.154;2022-07-30T03:51:18;3.83;;;2.13;;
58310;SDS011;45001;52.218;5.154;2022-07-30T03:53:44;3.80;;;1.90;;
58310;SDS011;45001;52.218;5.154;2022-07-30T03:56:11;4.53;;;2.17;;
58310;SDS011;45001;52.218;5.154;2022-07-30T03:58:38;3.00;;;2.22;;
58310;SDS011;45001;52.218;5.154;2022-07-30T04:01:03;2.78;;;1.95;;
58310;SDS011;45001;52.218;5.154;2022-07-30T04:03:30;3.38;;;2.20;;
58310;SDS011;45001;52.218;5.154;2022-07-30T04:05:56;2.08;;;1.80;;
58310;SDS011;45001;52.218;5.154;2022-07-30T04:08:22;3.85;;;2.22;;
58310;SDS011;45001;52.218;5.154;2022-07-30T04:10:48;3.10;;;1.83;;
58310;SDS011;45001;52.218;5.154;2022-07-30T04:13:14;4.38;;;2.75;;
58310;SDS011;45001;52.218;5.154;2022-07-30T04:16:15;2.92;;;2.03;;
58310;SDS011;45001;52.218;5.154;2022-07-30T04:18:36;3.78;;;1.83;;
58310;SDS011;45001;52.218;5.154;2022-07-30T04:21:06;4.22;;;2.00;;
58310;SDS011;45001;52.218;5.154;2022-07-30T04:23:34;2.95;;;2.03;;
58310;SDS011;45001;52.218;5.154;2022-07-30T04:26:00;4.07;;;2.20;;
58310;SDS011;45001;52.218;5.154;2022-07-30T04:28:26;3.95;;;1.98;;
58310;SDS011;45001;52.218;5.154;2022-07-30T04:30:53;3.95;;;2.17;;
58310;SDS011;45001;52.218;5.154;2022-07-30T04:33:19;3.40;;;1.92;;
58310;SDS011;45001;52.218;5.154;2022-07-30T04:35:44;2.45;;;1.73;;
58310;SDS011;45001;52.218;5.154;2022-07-30T04:38:10;2.88;;;1.77;;
58310;SDS011;45001;52.218;5.154;2022-07-30T04:40:37;2.42;;;1.70;;
58310;SDS011;45001;52.218;5.154;2022-07-30T04:43:03;3.00;;;2.00;;
58310;SDS011;45001;52.218;5.154;2022-07-30T04:45:28;3.10;;;1.63;;
58310;SDS011;45001;52.218;5.154;2022-07-30T04:47:54;3.30;;;1.80;;
58310;SDS011;45001;52.218;5.154;2022-07-30T04:50:20;3.13;;;1.92;;
58310;SDS011;45001;52.218;5.154;2022-07-30T04:52:47;3.03;;;1.92;;
58310;SDS011;45001;52.218;5.154;2022-07-30T04:55:13;2.85;;;1.70;;
58310;SDS011;45001;52.218;5.154;2022-07-30T04:57:39;4.35;;;1.83;;
58310;SDS011;45001;52.218;5.154;2022-07-30T05:00:06;4.50;;;1.92;;
58310;SDS011;45001;52.218;5.154;2022-07-30T05:02:33;2.60;;;1.60;;
58310;SDS011;45001;52.218;5.154;2022-07-30T05:05:01;4.97;;;2.10;;
58310;SDS011;45001;52.218;5.154;2022-07-30T05:07:28;3.47;;;1.80;;
58310;SDS011;45001;52.218;5.154;2022-07-30T05:09:55;3.20;;;1.65;;
58310;SDS011;45001;52.218;5.154;2022-07-30T05:12:21;2.80;;;1.85;;
58310;SDS011;45001;52.218;5.154;2022-07-30T05:14:56;2.70;;;1.63;;
58310;SDS011;45001;52.218;5.154;2022-07-30T05:17:21;2.90;;;1.77;;
58310;SDS011;45001;52.218;5.154;2022-07-30T05:19:47;3.00;;;1.70;;
58310;SDS011;45001;52.218;5.154;2022-07-30T05:22:12;3.28;;;1.50;;
58310;SDS011;45001;52.218;5.154;2022-07-30T05:24:37;3.67;;;1.77;;
58310;SDS011;45001;52.218;5.154;2022-07-30T05:27:02;2.33;;;1.70;;
58310;SDS011;45001;52.218;5.154;2022-07-30T05:29:28;2.70;;;1.70;;
58310;SDS011;45001;52.218;5.154;2022-07-30T05:31:53;3.22;;;1.80;;
58310;SDS011;45001;52.218;5.154;2022-07-30T05:34:18;3.17;;;1.53;;
58310;SDS011;45001;52.218;5.154;2022-07-30T05:36:44;4.05;;;1.83;;
58310;SDS011;45001;52.218;5.154;2022-07-30T05:39:09;2.67;;;1.50;;
58310;SDS011;45001;52.218;5.154;2022-07-30T05:41:34;2.13;;;1.60;;
58310;SDS011;45001;52.218;5.154;2022-07-30T05:44:00;4.25;;;1.70;;
58310;SDS011;45001;52.218;5.154;2022-07-30T05:46:25;3.47;;;1.88;;
58310;SDS011;45001;52.218;5.154;2022-07-30T05:48:51;2.42;;;1.63;;
58310;SDS011;45001;52.218;5.154;2022-07-30T05:51:16;2.58;;;1.40;;
58310;SDS011;45001;52.218;5.154;2022-07-30T05:53:43;2.88;;;1.60;;
58310;SDS011;45001;52.218;5.154;2022-07-30T05:56:08;2.22;;;1.70;;
58310;SDS011;45001;52.218;5.154;2022-07-30T05:58:35;2.85;;;1.55;;
58310;SDS011;45001;52.218;5.154;2022-07-30T06:01:01;3.13;;;1.70;;
58310;SDS011;45001;52.218;5.154;2022-07-30T06:03:26;2.72;;;1.60;;
58310;SDS011;45001;52.218;5.154;2022-07-30T06:05:51;2.83;;;1.48;;
58310;SDS011;45001;52.218;5.154;2022-07-30T06:08:17;2.40;;;1.33;;
58310;SDS011;45001;52.218;5.154;2022-07-30T06:10:42;2.33;;;1.43;;
58310;SDS011;45001;52.218;5.154;2022-07-30T06:13:07;2.67;;;1.50;;
58310;SDS011;45001;52.218;5.154;2022-07-30T06:15:33;2.88;;;1.42;;
58310;SDS011;45001;52.218;5.154;2022-07-30T06:17:58;2.95;;;1.30;;
58310;SDS011;45001;52.218;5.154;2022-07-30T06:20:23;2.13;;;1.45;;
58310;SDS011;45001;52.218;5.154;2022-07-30T06:22:49;4.53;;;1.50;;
58310;SDS011;45001;52.218;5.154;2022-07-30T06:25:14;2.30;;;1.40;;
58310;SDS011;45001;52.218;5.154;2022-07-30T06:27:39;3.00;;;1.35;;
58310;SDS011;45001;52.218;5.154;2022-07-30T06:30:05;3.50;;;1.45;;
58310;SDS011;45001;52.218;5.154;2022-07-30T06:32:32;2.58;;;1.60;;
58310;SDS011;45001;52.218;5.154;2022-07-30T06:34:58;4.78;;;1.38;;
58310;SDS011;45001;52.218;5.154;2022-07-30T06:37:24;3.70;;;1.80;;
58310;SDS011;45001;52.218;5.154;2022-07-30T06:39:49;4.03;;;1.60;;
58310;SDS011;45001;52.218;5.154;2022-07-30T06:42:15;3.00;;;1.55;;
58310;SDS011;45001;52.218;5.154;2022-07-30T06:44:40;2.70;;;1.58;;
58310;SDS011;45001;52.218;5.154;2022-07-30T06:47:06;2.22;;;1.30;;
58310;SDS011;45001;52.218;5.154;2022-07-30T06:49:32;3.65;;;1.90;;
58310;SDS011;45001;52.218;5.154;2022-07-30T06:51:58;3.63;;;1.38;;
58310;SDS011;45001;52.218;5.154;2022-07-30T06:54:23;2.42;;;1.27;;
58310;SDS011;45001;52.218;5.154;2022-07-30T06:56:49;3.53;;;1.35;;
58310;SDS011;45001;52.218;5.154;2022-07-30T06:59:14;3.80;;;1.40;;
58310;SDS011;45001;52.218;5.154;2022-07-30T07:01:40;3.15;;;1.55;;
58310;SDS011;45001;52.218;5.154;2022-07-30T07:04:05;2.50;;;1.20;;
58310;SDS011;45001;52.218;5.154;2022-07-30T07:06:30;2.15;;;1.40;;
58310;SDS011;45001;52.218;5.154;2022-07-30T07:08:56;3.17;;;1.63;;
58310;SDS011;45001;52.218;5.154;2022-07-30T07:11:21;4.10;;;1.30;;
58310;SDS011;45001;52.218;5.154;2022-07-30T07:13:46;3.10;;;1.50;;
58310;SDS011;45001;52.218;5.154;2022-07-30T07:16:12;3.15;;;1.58;;
58310;SDS011;45001;52.218;5.154;2022-07-30T07:18:37;4.22;;;1.50;;
58310;SDS011;45001;52.218;5.154;2022-07-30T07:21:02;3.23;;;1.40;;
58310;SDS011;45001;52.218;5.154;2022-07-30T07:23:28;2.15;;;1.30;;
58310;SDS011;45001;52.218;5.154;2022-07-30T07:25:54;2.90;;;1.35;;
58310;SDS011;45001;52.218;5.154;2022-07-30T07:28:20;2.72;;;1.30;;
58310;SDS011;45001;52.218;5.154;2022-07-30T07:30:45;2.53;;;1.42;;
58310;SDS011;45001;52.218;5.154;2022-07-30T07:33:11;2.60;;;1.20;;
58310;SDS011;45001;52.218;5.154;2022-07-30T07:35:36;3.17;;;1.60;;
58310;SDS011;45001;52.218;5.154;2022-07-30T07:38:02;2.92;;;1.50;;
58310;SDS011;45001;52.218;5.154;2022-07-30T07:40:28;2.65;;;1.40;;
58310;SDS011;45001;52.218;5.154;2022-07-30T07:42:53;4.13;;;1.55;;
58310;SDS011;45001;52.218;5.154;2022-07-30T07:45:19;3.77;;;1.40;;
58310;SDS011;45001;52.218;5.154;2022-07-30T07:47:45;3.20;;;1.40;;
58310;SDS011;45001;52.218;5.154;2022-07-30T07:50:13;3.67;;;1.23;;
58310;SDS011;45001;52.218;5.154;2022-07-30T07:52:40;2.05;;;1.30;;
58310;SDS011;45001;52.218;5.154;2022-07-30T07:55:05;3.30;;;1.52;;
58310;SDS011;45001;52.218;5.154;2022-07-30T07:57:36;2.83;;;1.40;;
58310;SDS011;45001;52.218;5.154;2022-07-30T08:00:07;2.53;;;1.67;;
58310;SDS011;45001;52.218;5.154;2022-07-30T08:02:34;2.70;;;1.52;;
58310;SDS011;45001;52.218;5.154;2022-07-30T08:05:00;4.18;;;1.30;;
58310;SDS011;45001;52.218;5.154;2022-07-30T08:07:25;2.58;;;1.17;;
58310;SDS011;45001;52.218;5.154;2022-07-30T08:09:51;2.47;;;1.10;;
58310;SDS011;45001;52.218;5.154;2022-07-30T08:12:16;3.42;;;1.20;;
58310;SDS011;45001;52.218;5.154;2022-07-30T08:14:41;2.88;;;1.45;;
58310;SDS011;45001;52.218;5.154;2022-07-30T08:17:07;1.90;;;1.27;;
58310;SDS011;45001;52.218;5.154;2022-07-30T08:19:32;2.03;;;1.15;;
58310;SDS011;45001;52.218;5.154;2022-07-30T08:21:58;2.42;;;1.30;;
58310;SDS011;45001;52.218;5.154;2022-07-30T08:24:23;2.80;;;1.30;;
58310;SDS011;45001;52.218;5.154;2022-07-30T08:26:48;1.92;;;1.30;;
58310;SDS011;45001;52.218;5.154;2022-07-30T08:29:14;4.25;;;1.38;;
58310;SDS011;45001;52.218;5.154;2022-07-30T08:31:39;3.88;;;1.35;;
58310;SDS011;45001;52.218;5.154;2022-07-30T08:34:05;3.10;;;1.40;;
58310;SDS011;45001;52.218;5.154;2022-07-30T08:36:30;2.80;;;1.33;;
58310;SDS011;45001;52.218;5.154;2022-07-30T08:38:55;2.22;;;1.50;;
58310;SDS011;45001;52.218;5.154;2022-07-30T08:41:20;3.78;;;1.33;;
58310;SDS011;45001;52.218;5.154;2022-07-30T08:43:49;2.15;;;1.50;;
58310;SDS011;45001;52.218;5.154;2022-07-30T08:46:14;1.35;;;1.20;;
58310;SDS011;45001;52.218;5.154;2022-07-30T08:48:42;3.15;;;1.60;;
58310;SDS011;45001;52.218;5.154;2022-07-30T08:51:08;2.53;;;1.60;;
58310;SDS011;45001;52.218;5.154;2022-07-30T08:53:34;2.42;;;1.42;;
58310;SDS011;45001;52.218;5.154;2022-07-30T08:56:00;2.50;;;1.50;;
58310;SDS011;45001;52.218;5.154;2022-07-30T08:58:31;1.93;;;1.37;;
58310;SDS011;45001;52.218;5.154;2022-07-30T09:00:59;2.45;;;1.42;;
58310;SDS011;45001;52.218;5.154;2022-07-30T09:03:24;2.33;;;1.42;;
58310;SDS011;45001;52.218;5.154;2022-07-30T09:05:50;1.80;;;1.13;;
58310;SDS011;45001;52.218;5.154;2022-07-30T09:08:15;2.58;;;1.55;;
58310;SDS011;45001;52.218;5.154;2022-07-30T09:10:40;2.40;;;1.30;;
58310;SDS011;45001;52.218;5.154;2022-07-30T09:16:02;2.40;;;1.42;;
58310;SDS011;45001;52.218;5.154;2022-07-30T09:18:34;2.00;;;1.48;;
58310;SDS011;45001;52.218;5.154;2022-07-30T09:21:14;2.20;;;1.30;;
58310;SDS011;45001;52.218;5.154;2022-07-30T09:24:01;3.60;;;1.60;;
58310;SDS011;45001;52.218;5.154;2022-07-30T09:26:28;3.22;;;1.48;;
58310;SDS011;45001;52.218;5.154;2022-07-30T09:29:10;4.20;;;1.40;;
58310;SDS011;45001;52.218;5.154;2022-07-30T09:34:31;2.45;;;1.30;;
58310;SDS011;45001;52.218;5.154;2022-07-30T09:36:59;3.33;;;1.40;;
58310;SDS011;45001;52.218;5.154;2022-07-30T09:39:30;4.63;;;1.50;;
58310;SDS011;45001;52.218;5.154;2022-07-30T09:42:03;2.15;;;1.50;;
58310;SDS011;45001;52.218;5.154;2022-07-30T09:44:40;3.78;;;1.42;;
58310;SDS011;45001;52.218;5.154;2022-07-30T09:47:05;2.45;;;1.25;;
58310;SDS011;45001;52.218;5.154;2022-07-30T09:49:31;3.05;;;1.60;;
58310;SDS011;45001;52.218;5.154;2022-07-30T09:51:56;3.10;;;1.67;;
58310;SDS011;45001;52.218;5.154;2022-07-30T09:54:22;2.85;;;1.30;;
58310;SDS011;45001;52.218;5.154;2022-07-30T09:56:58;2.13;;;1.40;;
58310;SDS011;45001;52.218;5.154;2022-07-30T09:59:29;3.75;;;1.30;;
58310;SDS011;45001;52.218;5.154;2022-07-30T10:01:56;3.42;;;1.83;;
58310;SDS011;45001;52.218;5.154;2022-07-30T10:04:29;4.18;;;1.58;;
58310;SDS011;45001;52.218;5.154;2022-07-30T10:06:56;4.65;;;2.05;;
58310;SDS011;45001;52.218;5.154;2022-07-30T10:09:28;4.18;;;1.63;;
58310;SDS011;45001;52.218;5.154;2022-07-30T10:11:58;4.00;;;1.33;;
58310;SDS011;45001;52.218;5.154;2022-07-30T10:14:28;5.95;;;1.95;;
58310;SDS011;45001;52.218;5.154;2022-07-30T10:16:55;5.63;;;2.10;;
58310;SDS011;45001;52.218;5.154;2022-07-30T10:19:21;6.45;;;1.92;;
58310;SDS011;45001;52.218;5.154;2022-07-30T10:21:47;3.08;;;1.45;;
58310;SDS011;45001;52.218;5.154;2022-07-30T10:24:17;6.60;;;1.60;;
58310;SDS011;45001;52.218;5.154;2022-07-30T10:29:16;4.38;;;1.58;;
58310;SDS011;45001;52.218;5.154;2022-07-30T10:31:43;4.68;;;1.20;;
58310;SDS011;45001;52.218;5.154;2022-07-30T10:34:10;4.55;;;1.83;;
58310;SDS011;45001;52.218;5.154;2022-07-30T10:36:36;7.13;;;1.60;;
58310;SDS011;45001;52.218;5.154;2022-07-30T10:39:04;2.60;;;1.33;;
58310;SDS011;45001;52.218;5.154;2022-07-30T10:47:25;3.85;;;1.60;;
58310;SDS011;45001;52.218;5.154;2022-07-30T10:50:04;5.50;;;1.40;;
58310;SDS011;45001;52.218;5.154;2022-07-30T10:52:44;4.28;;;1.58;;
58310;SDS011;45001;52.218;5.154;2022-07-30T10:55:18;2.90;;;1.50;;
58310;SDS011;45001;52.218;5.154;2022-07-30T11:00:32;5.18;;;1.85;;
58310;SDS011;45001;52.218;5.154;2022-07-30T11:06:35;4.75;;;1.52;;
58310;SDS011;45001;52.218;5.154;2022-07-30T11:08:39;2.35;;;1.35;;
58310;SDS011;45001;52.218;5.154;2022-07-30T11:13:50;2.65;;;1.50;;
58310;SDS011;45001;52.218;5.154;2022-07-30T11:16:19;3.83;;;1.50;;
58310;SDS011;45001;52.218;5.154;2022-07-30T11:21:31;3.10;;;1.30;;
58310;SDS011;45001;52.218;5.154;2022-07-30T11:23:57;2.85;;;1.30;;
58310;SDS011;45001;52.218;5.154;2022-07-30T11:29:05;2.67;;;1.30;;
58310;SDS011;45001;52.218;5.154;2022-07-30T11:31:32;3.67;;;1.40;;
58310;SDS011;45001;52.218;5.154;2022-07-30T11:34:23;2.65;;;1.30;;
58310;SDS011;45001;52.218;5.154;2022-07-30T11:37:02;3.33;;;1.30;;
58310;SDS011;45001;52.218;5.154;2022-07-30T11:42:24;3.33;;;1.38;;
58310;SDS011;45001;52.218;5.154;2022-07-30T11:44:50;2.33;;;1.17;;
58310;SDS011;45001;52.218;5.154;2022-07-30T11:47:16;3.28;;;1.63;;
58310;SDS011;45001;52.218;5.154;2022-07-30T11:49:42;6.35;;;1.40;;
58310;SDS011;45001;52.218;5.154;2022-07-30T11:52:09;4.07;;;1.50;;
58310;SDS011;45001;52.218;5.154;2022-07-30T11:57:51;4.35;;;1.50;;
58310;SDS011;45001;52.218;5.154;2022-07-30T12:00:16;2.50;;;1.52;;
58310;SDS011;45001;52.218;5.154;2022-07-30T12:02:44;3.67;;;1.55;;
58310;SDS011;45001;52.218;5.154;2022-07-30T12:05:10;2.30;;;1.35;;
58310;SDS011;45001;52.218;5.154;2022-07-30T12:07:36;3.40;;;1.58;;
58310;SDS011;45001;52.218;5.154;2022-07-30T12:10:13;4.38;;;1.45;;
58310;SDS011;45001;52.218;5.154;2022-07-30T12:12:43;3.05;;;1.17;;
58310;SDS011;45001;52.218;5.154;2022-07-30T12:15:09;4.78;;;1.40;;
58310;SDS011;45001;52.218;5.154;2022-07-30T12:17:42;2.40;;;1.35;;
58310;SDS011;45001;52.218;5.154;2022-07-30T12:20:18;4.15;;;1.60;;
58310;SDS011;45001;52.218;5.154;2022-07-30T12:22:45;3.78;;;1.70;;
58310;SDS011;45001;52.218;5.154;2022-07-30T12:25:10;3.13;;;1.38;;
58310;SDS011;45001;52.218;5.154;2022-07-30T12:27:36;7.50;;;1.65;;
58310;SDS011;45001;52.218;5.154;2022-07-30T12:30:05;4.95;;;1.27;;
58310;SDS011;45001;52.218;5.154;2022-07-30T12:32:35;2.65;;;1.23;;
58310;SDS011;45001;52.218;5.154;2022-07-30T12:35:01;4.80;;;1.42;;
58310;SDS011;45001;52.218;5.154;2022-07-30T12:37:26;3.78;;;1.50;;
58310;SDS011;45001;52.218;5.154;2022-07-30T12:40:11;3.38;;;1.20;;
58310;SDS011;45001;52.218;5.154;2022-07-30T12:42:50;3.50;;;1.17;;
58310;SDS011;45001;52.218;5.154;2022-07-30T12:45:29;2.33;;;1.30;;
58310;SDS011;45001;52.218;5.154;2022-07-30T12:47:56;4.22;;;1.48;;
58310;SDS011;45001;52.218;5.154;2022-07-30T12:50:22;2.75;;;1.10;;
58310;SDS011;45001;52.218;5.154;2022-07-30T12:55:19;2.47;;;1.27;;
58310;SDS011;45001;52.218;5.154;2022-07-30T12:58:00;2.95;;;1.58;;
58310;SDS011;45001;52.218;5.154;2022-07-30T13:00:31;2.28;;;1.15;;
58310;SDS011;45001;52.218;5.154;2022-07-30T13:03:28;4.55;;;1.42;;
58310;SDS011;45001;52.218;5.154;2022-07-30T13:06:09;4.28;;;1.40;;
58310;SDS011;45001;52.218;5.154;2022-07-30T13:08:46;3.25;;;1.38;;
58310;SDS011;45001;52.218;5.154;2022-07-30T13:11:13;3.13;;;1.73;;
58310;SDS011;45001;52.218;5.154;2022-07-30T13:13:38;3.60;;;1.20;;
58310;SDS011;45001;52.218;5.154;2022-07-30T13:16:04;3.30;;;1.30;;
58310;SDS011;45001;52.218;5.154;2022-07-30T13:18:31;2.42;;;1.10;;
58310;SDS011;45001;52.218;5.154;2022-07-30T13:20:58;4.28;;;1.52;;
58310;SDS011;45001;52.218;5.154;2022-07-30T13:23:24;3.30;;;1.30;;
58310;SDS011;45001;52.218;5.154;2022-07-30T13:25:51;3.63;;;1.48;;
58310;SDS011;45001;52.218;5.154;2022-07-30T13:28:16;3.35;;;1.27;;
58310;SDS011;45001;52.218;5.154;2022-07-30T13:30:42;2.30;;;1.25;;
58310;SDS011;45001;52.218;5.154;2022-07-30T13:33:08;2.40;;;0.98;;
58310;SDS011;45001;52.218;5.154;2022-07-30T13:35:34;3.30;;;1.25;;
58310;SDS011;45001;52.218;5.154;2022-07-30T13:37:59;3.15;;;1.30;;
58310;SDS011;45001;52.218;5.154;2022-07-30T13:40:25;2.88;;;1.15;;
58310;SDS011;45001;52.218;5.154;2022-07-30T13:42:51;3.97;;;1.40;;
58310;SDS011;45001;52.218;5.154;2022-07-30T13:45:16;3.33;;;1.37;;
58310;SDS011;45001;52.218;5.154;2022-07-30T13:47:42;3.03;;;1.10;;
58310;SDS011;45001;52.218;5.154;2022-07-30T13:50:07;2.30;;;1.02;;
58310;SDS011;45001;52.218;5.154;2022-07-30T13:52:33;2.63;;;1.38;;
58310;SDS011;45001;52.218;5.154;2022-07-30T13:54:58;2.22;;;1.23;;
58310;SDS011;45001;52.218;5.154;2022-07-30T13:57:23;4.30;;;1.30;;
58310;SDS011;45001;52.218;5.154;2022-07-30T13:59:48;2.90;;;1.23;;
58310;SDS011;45001;52.218;5.154;2022-07-30T14:02:14;4.93;;;1.25;;
58310;SDS011;45001;52.218;5.154;2022-07-30T14:04:39;2.20;;;1.10;;
58310;SDS011;45001;52.218;5.154;2022-07-30T14:07:04;2.10;;;1.17;;
58310;SDS011;45001;52.218;5.154;2022-07-30T14:09:30;2.10;;;1.13;;
58310;SDS011;45001;52.218;5.154;2022-07-30T14:11:55;3.25;;;1.40;;
58310;SDS011;45001;52.218;5.154;2022-07-30T14:14:20;2.13;;;1.23;;
58310;SDS011;45001;52.218;5.154;2022-07-30T14:16:47;2.05;;;1.20;;
58310;SDS011;45001;52.218;5.154;2022-07-30T14:19:14;2.30;;;1.27;;
58310;SDS011;45001;52.218;5.154;2022-07-30T14:21:40;2.53;;;1.10;;
58310;SDS011;45001;52.218;5.154;2022-07-30T14:24:06;2.25;;;1.25;;
58310;SDS011;45001;52.218;5.154;2022-07-30T14:26:31;2.88;;;1.50;;
58310;SDS011;45001;52.218;5.154;2022-07-30T14:28:57;2.72;;;1.25;;
58310;SDS011;45001;52.218;5.154;2022-07-30T14:31:23;2.38;;;1.30;;
58310;SDS011;45001;52.218;5.154;2022-07-30T14:33:48;2.97;;;1.10;;
58310;SDS011;45001;52.218;5.154;2022-07-30T14:36:13;3.50;;;1.10;;
58310;SDS011;45001;52.218;5.154;2022-07-30T14:38:39;2.65;;;1.23;;
58310;SDS011;45001;52.218;5.154;2022-07-30T14:41:05;1.90;;;1.00;;
58310;SDS011;45001;52.218;5.154;2022-07-30T14:43:31;2.85;;;1.40;;
58310;SDS011;45001;52.218;5.154;2022-07-30T14:45:56;4.03;;;1.45;;
58310;SDS011;45001;52.218;5.154;2022-07-30T14:48:21;3.42;;;1.15;;
58310;SDS011;45001;52.218;5.154;2022-07-30T14:50:47;3.28;;;1.58;;
58310;SDS011;45001;52.218;5.154;2022-07-30T14:53:12;3.90;;;1.35;;
58310;SDS011;45001;52.218;5.154;2022-07-30T14:55:38;2.28;;;1.10;;
58310;SDS011;45001;52.218;5.154;2022-07-30T14:58:03;2.08;;;1.20;;
58310;SDS011;45001;52.218;5.154;2022-07-30T15:00:28;2.60;;;1.25;;
58310;SDS011;45001;52.218;5.154;2022-07-30T15:02:54;2.00;;;1.30;;
58310;SDS011;45001;52.218;5.154;2022-07-30T15:05:19;2.80;;;1.20;;
58310;SDS011;45001;52.218;5.154;2022-07-30T15:07:44;2.15;;;1.65;;
58310;SDS011;45001;52.218;5.154;2022-07-30T15:10:10;2.40;;;1.23;;
58310;SDS011;45001;52.218;5.154;2022-07-30T15:12:35;2.20;;;1.20;;
58310;SDS011;45001;52.218;5.154;2022-07-30T15:15:00;2.67;;;1.05;;
58310;SDS011;45001;52.218;5.154;2022-07-30T15:17:26;2.35;;;1.00;;
58310;SDS011;45001;52.218;5.154;2022-07-30T15:19:51;2.20;;;1.15;;
58310;SDS011;45001;52.218;5.154;2022-07-30T15:22:19;3.35;;;1.13;;
58310;SDS011;45001;52.218;5.154;2022-07-30T15:24:45;2.22;;;1.10;;
58310;SDS011;45001;52.218;5.154;2022-07-30T15:27:10;2.88;;;1.10;;
58310;SDS011;45001;52.218;5.154;2022-07-30T15:29:37;2.58;;;1.30;;
58310;SDS011;45001;52.218;5.154;2022-07-30T15:32:02;1.63;;;1.20;;
58310;SDS011;45001;52.218;5.154;2022-07-30T15:34:28;2.08;;;1.08;;
58310;SDS011;45001;52.218;5.154;2022-07-30T15:36:57;3.15;;;1.13;;